createdAt,value
2022-08-07T00:00:58.291Z,50.849480
2022-08-07T00:02:36.314Z,50.849503
2022-08-07T00:02:58.284Z,50.849487
2022-08-07T00:03:57.278Z,50.849518
2022-08-07T00:04:57.329Z,50.849495
2022-08-07T00:05:57.232Z,50.849445
2022-08-07T00:07:01.363Z,50.849480
2022-08-07T00:07:58.537Z,50.849461
2022-08-07T00:08:57.212Z,50.849442
2022-08-07T00:10:19.172Z,50.849461
2022-08-07T00:10:58.479Z,50.849453
2022-08-07T00:11:58.885Z,50.849453
2022-08-07T00:13:00.383Z,50.849453
2022-08-07T00:13:57.180Z,50.849449
2022-08-07T00:14:57.179Z,50.849476
2022-08-07T00:15:57.176Z,50.849464
2022-08-07T00:16:57.157Z,50.849464
2022-08-07T00:17:57.139Z,50.849445
2022-08-07T00:18:57.132Z,50.849461
2022-08-07T00:20:01.391Z,50.849499
2022-08-07T00:21:01.731Z,50.849483
2022-08-07T00:22:01.997Z,50.849506
2022-08-07T00:22:57.104Z,50.849491
2022-08-07T00:23:57.091Z,50.849503
2022-08-07T00:24:57.092Z,50.849487
2022-08-07T00:26:00.268Z,50.849487
2022-08-07T00:27:06.229Z,50.849510
2022-08-07T00:27:58.060Z,50.849472
2022-08-07T00:28:57.199Z,50.849453
2022-08-07T00:29:57.044Z,50.849468
2022-08-07T00:30:57.043Z,50.849468
2022-08-07T00:31:57.093Z,50.849461
2022-08-07T00:32:57.043Z,50.849449
2022-08-07T00:33:57.018Z,50.849468
2022-08-07T00:34:57.002Z,50.849476
2022-08-07T00:35:57.025Z,50.849464
2022-08-07T00:36:56.995Z,50.849461
2022-08-07T00:37:56.985Z,50.849457
2022-08-07T00:38:57.023Z,50.849491
2022-08-07T00:39:57.032Z,50.849503
2022-08-07T00:40:56.967Z,50.849491
2022-08-07T00:42:01.962Z,50.849499
2022-08-07T00:42:57.951Z,50.849499
2022-08-07T00:43:59.244Z,50.849472
2022-08-07T00:44:56.938Z,50.849457
2022-08-07T00:45:56.916Z,50.849472
2022-08-07T00:46:56.909Z,50.849476
2022-08-07T00:48:08.352Z,50.849461
2022-08-07T00:48:57.918Z,50.849434
2022-08-07T00:50:19.692Z,50.849445
2022-08-07T00:50:57.912Z,50.849461
2022-08-07T00:51:58.660Z,50.849476
2022-08-07T00:52:56.867Z,50.849503
2022-08-07T00:53:56.872Z,50.849499
2022-08-07T00:54:56.869Z,50.849487
2022-08-07T00:56:02.346Z,50.849476
2022-08-07T00:56:57.837Z,50.849506
2022-08-07T00:57:56.821Z,50.849495
2022-08-07T00:58:56.821Z,50.849487
2022-08-07T00:59:56.812Z,50.849476
2022-08-07T01:00:56.823Z,50.849483
2022-08-07T01:01:57.013Z,50.849480
2022-08-07T01:02:56.814Z,50.849525
2022-08-07T01:04:00.134Z,50.849510
2022-08-07T01:04:58.654Z,50.849510
2022-08-07T01:05:56.763Z,50.849483
2022-08-07T01:06:56.792Z,50.849495
2022-08-07T01:07:56.751Z,50.849491
2022-08-07T01:09:00.574Z,50.849499
2022-08-07T01:10:06.424Z,50.849495
2022-08-07T01:10:58.465Z,50.849495
2022-08-07T01:12:23.931Z,50.849476
2022-08-07T01:12:57.699Z,50.849495
2022-08-07T01:13:56.693Z,50.849503
2022-08-07T01:14:57.154Z,50.849510
2022-08-07T01:16:00.792Z,50.849518
2022-08-07T01:16:57.691Z,50.849510
2022-08-07T01:17:56.664Z,50.849483
2022-08-07T01:18:56.659Z,50.849491
2022-08-07T01:19:56.647Z,50.849491
2022-08-07T01:20:59.455Z,50.849506
2022-08-07T01:21:56.654Z,50.849468
2022-08-07T01:23:12.415Z,50.849499
2022-08-07T01:23:57.621Z,50.849518
2022-08-07T01:24:56.603Z,50.849510
2022-08-07T01:25:56.626Z,50.849510
2022-08-07T01:26:56.579Z,50.849514
2022-08-07T01:27:56.606Z,50.849491
2022-08-07T01:28:56.566Z,50.849499
2022-08-07T01:29:56.564Z,50.849514
2022-08-07T01:30:56.546Z,50.849522
2022-08-07T01:31:59.431Z,50.849533
2022-08-07T01:32:56.562Z,50.849506
2022-08-07T01:33:57.565Z,50.849503
2022-08-07T01:34:57.295Z,50.849499
2022-08-07T01:36:06.201Z,50.849503
2022-08-07T01:36:57.935Z,50.849522
2022-08-07T01:37:56.495Z,50.849518
2022-08-07T01:38:56.535Z,50.849518
2022-08-07T01:39:56.637Z,50.849529
2022-08-07T01:40:56.478Z,50.849533
2022-08-07T01:42:37.109Z,50.849522
2022-08-07T01:42:59.132Z,50.849545
2022-08-07T01:43:56.490Z,50.849560
2022-08-07T01:44:56.444Z,50.849533
2022-08-07T01:45:56.439Z,50.849545
2022-08-07T01:46:56.413Z,50.849537
2022-08-07T01:48:19.745Z,50.849537
2022-08-07T01:48:57.435Z,50.849518
2022-08-07T01:49:56.396Z,50.849495
2022-08-07T01:50:56.392Z,50.849518
2022-08-07T01:52:04.004Z,50.849514
2022-08-07T01:52:57.382Z,50.849503
2022-08-07T01:54:08.952Z,50.849503
2022-08-07T01:54:58.969Z,50.849514
2022-08-07T01:55:56.369Z,50.849495
2022-08-07T01:56:56.355Z,50.849503
2022-08-07T01:58:01.154Z,50.849499
2022-08-07T01:58:57.356Z,50.849514
2022-08-07T01:59:56.325Z,50.849529
2022-08-07T02:01:09.506Z,50.849533
2022-08-07T02:02:01.671Z,50.849548
2022-08-07T02:03:18.818Z,50.849525
2022-08-07T02:03:57.332Z,50.849564
2022-08-07T02:04:57.320Z,50.849537
2022-08-07T02:05:59.804Z,50.849552
2022-08-07T02:06:56.316Z,50.849564
2022-08-07T02:07:56.252Z,50.849556
2022-08-07T02:08:56.243Z,50.849545
2022-08-07T02:09:58.275Z,50.849506
2022-08-07T02:10:58.068Z,50.849491
2022-08-07T02:12:05.005Z,50.849510
2022-08-07T02:12:57.217Z,50.849522
2022-08-07T02:13:57.713Z,50.849503
2022-08-07T02:14:56.193Z,50.849510
2022-08-07T02:15:56.181Z,50.849514
2022-08-07T02:16:56.174Z,50.849518
2022-08-07T02:17:56.542Z,50.849510
2022-08-07T02:18:56.163Z,50.849533
2022-08-07T02:20:04.686Z,50.849506
2022-08-07T02:20:57.451Z,50.849518
2022-08-07T02:21:57.813Z,50.849525
2022-08-07T02:22:56.126Z,50.849533
2022-08-07T02:23:56.142Z,50.849487
2022-08-07T02:24:56.121Z,50.849506
2022-08-07T02:26:31.438Z,50.849495
2022-08-07T02:26:57.105Z,50.849545
2022-08-07T02:27:56.099Z,50.849548
2022-08-07T02:28:56.079Z,50.849537
2022-08-07T02:29:56.092Z,50.849556
2022-08-07T02:30:56.074Z,50.849533
2022-08-07T02:31:56.065Z,50.849533
2022-08-07T02:33:07.169Z,50.849541
2022-08-07T02:34:03.712Z,50.849518
2022-08-07T02:34:57.048Z,50.849529
2022-08-07T02:36:29.081Z,50.849541
2022-08-07T02:36:57.015Z,50.849533
2022-08-07T02:37:56.015Z,50.849506
2022-08-07T02:38:56.814Z,50.849525
2022-08-07T02:40:11.868Z,50.849514
2022-08-07T02:40:57.054Z,50.849537
2022-08-07T02:41:56.547Z,50.849537
2022-08-07T02:42:55.997Z,50.849537
2022-08-07T02:43:55.964Z,50.849552
2022-08-07T02:44:56.004Z,50.849564
2022-08-07T02:46:00.814Z,50.849541
2022-08-07T02:46:56.952Z,50.849525
2022-08-07T02:47:55.926Z,50.849556
2022-08-07T02:48:55.916Z,50.849541
2022-08-07T02:49:59.661Z,50.849548
2022-08-07T02:50:55.905Z,50.849533
2022-08-07T02:51:55.922Z,50.849564
2022-08-07T02:53:03.478Z,50.849594
2022-08-07T02:53:56.881Z,50.849586
2022-08-07T02:54:55.873Z,50.849567
2022-08-07T02:56:02.478Z,50.849583
2022-08-07T02:59:24.181Z,50.849537
2022-08-07T03:00:22.991Z,50.849583
2022-08-07T03:01:35.683Z,50.849533
2022-08-07T03:02:23.988Z,50.849545
2022-08-07T03:03:22.979Z,50.849556
2022-08-07T03:04:22.963Z,50.849564
2022-08-07T03:05:22.958Z,50.849556
2022-08-07T03:06:32.159Z,50.849522
2022-08-07T03:07:43.114Z,50.849575
2022-08-07T03:08:26.723Z,50.849564
2022-08-07T03:09:43.398Z,50.849533
2022-08-07T03:10:23.932Z,50.849556
2022-08-07T03:11:25.345Z,50.849560
2022-08-07T03:12:31.177Z,50.849545
2022-08-07T03:13:23.905Z,50.849567
2022-08-07T03:14:22.868Z,50.849533
2022-08-07T03:15:30.339Z,50.849560
2022-08-07T03:16:27.960Z,50.849560
2022-08-07T03:17:22.857Z,50.849533
2022-08-07T03:18:25.829Z,50.849510
2022-08-07T03:19:23.817Z,50.849567
2022-08-07T03:20:23.807Z,50.849571
2022-08-07T03:21:22.826Z,50.849487
2022-08-07T03:22:22.807Z,50.849586
2022-08-07T03:23:34.173Z,50.849583
2022-08-07T03:24:27.548Z,50.849522
2022-08-07T03:25:22.787Z,50.849545
2022-08-07T03:26:23.650Z,50.849514
2022-08-07T03:27:30.466Z,50.849541
2022-08-07T03:28:38.048Z,50.849545
2022-08-07T03:29:23.731Z,50.849564
2022-08-07T03:30:24.418Z,50.849564
2022-08-07T03:31:24.506Z,50.849552
2022-08-07T03:32:22.793Z,50.849525
2022-08-07T03:33:22.693Z,50.849510
2022-08-07T03:34:22.933Z,50.849529
2022-08-07T03:35:26.123Z,50.849522
2022-08-07T03:36:22.670Z,50.849518
2022-08-07T03:37:27.760Z,50.849537
2022-08-07T03:38:29.476Z,50.849537
2022-08-07T03:39:58.921Z,50.849537
2022-08-07T03:40:23.692Z,50.849529
2022-08-07T03:41:42.569Z,50.849529
2022-08-07T03:42:23.612Z,50.849525
2022-08-07T03:43:22.609Z,50.849514
2022-08-07T03:44:31.918Z,50.849514
2022-08-07T03:45:30.908Z,50.849518
2022-08-07T03:46:23.626Z,50.849495
2022-08-07T03:47:22.927Z,50.849514
2022-08-07T03:48:22.586Z,50.849525
2022-08-07T03:49:22.555Z,50.849529
2022-08-07T03:50:23.268Z,50.849514
2022-08-07T03:51:22.533Z,50.849506
2022-08-07T03:52:26.448Z,50.849499
2022-08-07T03:53:50.104Z,50.849503
2022-08-07T03:54:35.896Z,50.849537
2022-08-07T03:55:23.509Z,50.849541
2022-08-07T03:56:33.372Z,50.849541
2022-08-07T03:58:35.018Z,50.849541
2022-08-07T03:59:05.708Z,50.849548
2022-08-07T03:59:23.476Z,50.849533
2022-08-07T04:00:29.307Z,50.849514
2022-08-07T04:01:23.491Z,50.849514
2022-08-07T04:02:22.437Z,50.849525
2022-08-07T04:03:22.491Z,50.849499
2022-08-07T04:04:22.419Z,50.849510
2022-08-07T04:05:24.014Z,50.849518
2022-08-07T04:06:37.170Z,50.849506
2022-08-07T04:07:23.397Z,50.849514
2022-08-07T04:08:22.399Z,50.849495
2022-08-07T04:09:23.377Z,50.849514
2022-08-07T04:10:22.384Z,50.849506
2022-08-07T04:12:23.691Z,50.849514
2022-08-07T04:12:28.778Z,50.849506
2022-08-07T04:13:27.630Z,50.849518
2022-08-07T04:14:37.299Z,50.849533
2022-08-07T04:15:23.864Z,50.849506
2022-08-07T04:16:31.473Z,50.849529
2022-08-07T04:17:23.340Z,50.849499
2022-08-07T04:18:57.654Z,50.849499
2022-08-07T04:19:23.287Z,50.849510
2022-08-07T04:20:23.291Z,50.849537
2022-08-07T04:21:22.299Z,50.849537
2022-08-07T04:22:22.927Z,50.849522
2022-08-07T04:23:22.289Z,50.849506
2022-08-07T04:24:30.566Z,50.849518
2022-08-07T04:25:23.584Z,50.849503
2022-08-07T04:26:22.248Z,50.849506
2022-08-07T04:27:36.029Z,50.849522
2022-08-07T04:28:23.234Z,50.849514
2022-08-07T04:29:22.217Z,50.849537
2022-08-07T04:30:39.162Z,50.849552
2022-08-07T04:32:02.169Z,50.849537
2022-08-07T04:32:27.210Z,50.849545
2022-08-07T04:33:23.281Z,50.849525
2022-08-07T04:34:24.058Z,50.849525
2022-08-07T04:35:23.151Z,50.849525
2022-08-07T04:36:22.863Z,50.849529
2022-08-07T04:37:22.161Z,50.849514
2022-08-07T04:38:22.161Z,50.849514
2022-08-07T04:39:25.984Z,50.849533
2022-08-07T04:40:22.141Z,50.849541
2022-08-07T04:41:22.180Z,50.849548
2022-08-07T04:42:22.095Z,50.849529
2022-08-07T04:44:11.863Z,50.849518
2022-08-07T04:44:23.093Z,50.849491
2022-08-07T04:45:57.812Z,50.849495
2022-08-07T04:46:29.375Z,50.849487
2022-08-07T04:47:23.532Z,50.849499
2022-08-07T04:48:23.058Z,50.849499
2022-08-07T04:49:24.630Z,50.849472
2022-08-07T04:50:22.190Z,50.849495
2022-08-07T04:51:27.192Z,50.849506
2022-08-07T04:52:25.162Z,50.849487
2022-08-07T04:53:40.015Z,50.849510
2022-08-07T04:54:23.013Z,50.849491
2022-08-07T04:58:10.150Z,50.849495
2022-08-07T04:58:11.836Z,50.849487
2022-08-07T04:58:14.632Z,50.849491
2022-08-07T04:58:33.815Z,50.849495
2022-08-07T05:00:10.703Z,50.849483
2022-08-07T05:00:30.641Z,50.849510
2022-08-07T05:01:22.983Z,50.849503
2022-08-07T05:02:22.922Z,50.849503
2022-08-07T05:03:38.923Z,50.849491
2022-08-07T05:04:22.906Z,50.849487
2022-08-07T05:05:52.685Z,50.849495
2022-08-07T05:06:22.911Z,50.849503
2022-08-07T05:07:28.954Z,50.849499
2022-08-07T05:08:59.696Z,50.849506
2022-08-07T05:09:43.196Z,50.849503
2022-08-07T05:10:22.897Z,50.849503
2022-08-07T05:11:24.355Z,50.849487
2022-08-07T05:12:27.363Z,50.849487
2022-08-07T05:14:52.509Z,50.849499
2022-08-07T05:14:56.260Z,50.849503
2022-08-07T05:15:23.883Z,50.849495
2022-08-07T05:16:21.829Z,50.849487
2022-08-07T05:17:51.898Z,50.849476
2022-08-07T05:18:22.797Z,50.849457
2022-08-07T05:19:25.730Z,50.849464
2022-08-07T05:20:22.782Z,50.849476
2022-08-07T05:21:59.532Z,50.849457
2022-08-07T05:22:27.668Z,50.849480
2022-08-07T05:23:29.044Z,50.849472
2022-08-07T05:24:24.549Z,50.849464
2022-08-07T05:25:35.558Z,50.849476
2022-08-07T05:26:24.090Z,50.849483
2022-08-07T05:28:02.108Z,50.849472
2022-08-07T05:28:26.576Z,50.849468
2022-08-07T05:29:21.697Z,50.849472
2022-08-07T05:30:30.198Z,50.849483
2022-08-07T05:31:23.073Z,50.849522
2022-08-07T05:32:21.722Z,50.849499
2022-08-07T05:33:21.742Z,50.849461
2022-08-07T05:34:21.680Z,50.849468
2022-08-07T05:35:33.248Z,50.849483
2022-08-07T05:36:30.388Z,50.849491
2022-08-07T05:37:25.140Z,50.849476
2022-08-07T05:39:00.142Z,50.849480
2022-08-07T05:40:17.437Z,50.849461
2022-08-07T05:40:22.710Z,50.849483
2022-08-07T05:41:22.710Z,50.849499
2022-08-07T05:42:33.424Z,50.849506
2022-08-07T05:43:49.569Z,50.849518
2022-08-07T05:44:29.240Z,50.849510
2022-08-07T05:45:46.338Z,50.849495
2022-08-07T05:46:22.553Z,50.849510
2022-08-07T05:47:38.126Z,50.849510
2022-08-07T05:48:26.740Z,50.849522
2022-08-07T05:49:21.538Z,50.849518
2022-08-07T05:50:21.554Z,50.849499
2022-08-07T05:51:21.523Z,50.849491
2022-08-07T05:52:30.020Z,50.849487
2022-08-07T05:54:09.508Z,50.849522
2022-08-07T05:54:31.055Z,50.849514
2022-08-07T05:55:22.512Z,50.849518
2022-08-07T05:56:29.958Z,50.849503
2022-08-07T05:57:22.483Z,50.849506
2022-08-07T05:58:36.240Z,50.849503
2022-08-07T05:59:22.456Z,50.849518
2022-08-07T06:00:21.458Z,50.849522
2022-08-07T06:01:21.716Z,50.849518
2022-08-07T06:02:22.737Z,50.849514
2022-08-07T06:03:22.438Z,50.849522
2022-08-07T06:04:21.407Z,50.849525
2022-08-07T06:05:25.975Z,50.849525
2022-08-07T06:06:22.397Z,50.849525
2022-08-07T06:07:22.938Z,50.849537
2022-08-07T06:08:30.758Z,50.849525
2022-08-07T06:09:22.416Z,50.849518
2022-08-07T06:10:22.373Z,50.849522
2022-08-07T06:11:21.366Z,50.849548
2022-08-07T06:12:27.779Z,50.849548
2022-08-07T06:13:31.630Z,50.849545
2022-08-07T06:14:28.782Z,50.849541
2022-08-07T06:15:22.315Z,50.849533
2022-08-07T06:16:22.333Z,50.849537
2022-08-07T06:17:22.507Z,50.849556
2022-08-07T06:18:22.297Z,50.849533
2022-08-07T06:19:52.370Z,50.849529
2022-08-07T06:20:31.662Z,50.849518
2022-08-07T06:22:15.858Z,50.849541
2022-08-07T06:22:23.802Z,50.849545
2022-08-07T06:23:46.890Z,50.849537
2022-08-07T06:24:38.440Z,50.849533
2022-08-07T06:25:22.258Z,50.849518
2022-08-07T06:26:21.248Z,50.849506
2022-08-07T06:27:22.867Z,50.849537
2022-08-07T06:28:27.312Z,50.849533
2022-08-07T06:29:22.208Z,50.849522
2022-08-07T06:30:32.109Z,50.849518
2022-08-07T06:31:24.160Z,50.849522
2022-08-07T06:32:22.211Z,50.849525
2022-08-07T06:33:22.707Z,50.849548
2022-08-07T06:34:21.614Z,50.849529
2022-08-07T06:35:21.153Z,50.849518
2022-08-07T06:36:35.397Z,50.849533
2022-08-07T06:37:22.160Z,50.849529
2022-08-07T06:38:21.235Z,50.849522
2022-08-07T06:40:13.317Z,50.849545
2022-08-07T06:40:22.200Z,50.849541
2022-08-07T06:41:47.643Z,50.849545
2022-08-07T06:42:26.640Z,50.849545
2022-08-07T06:43:22.318Z,50.849518
2022-08-07T06:44:21.099Z,50.849522
2022-08-07T06:45:21.261Z,50.849522
2022-08-07T06:46:35.136Z,50.849548
2022-08-07T06:47:22.125Z,50.849518
2022-08-07T06:48:24.792Z,50.849518
2022-08-07T06:49:21.059Z,50.849529
2022-08-07T06:50:21.028Z,50.849537
2022-08-07T06:51:31.319Z,50.849541
2022-08-07T06:52:31.556Z,50.849541
2022-08-07T06:55:28.646Z,50.849529
2022-08-07T06:55:32.698Z,50.849529
2022-08-07T06:55:33.156Z,50.849545
2022-08-07T06:56:21.974Z,50.849533
2022-08-07T06:57:20.977Z,50.849545
2022-08-07T06:58:24.593Z,50.849541
2022-08-07T07:00:12.819Z,50.849548
2022-08-07T07:00:21.940Z,50.849533
2022-08-07T07:01:20.995Z,50.849545
2022-08-07T07:02:48.231Z,50.849548
2022-08-07T07:03:26.442Z,50.849556
2022-08-07T07:04:32.724Z,50.849545
2022-08-07T07:06:03.414Z,50.849525
2022-08-07T07:06:26.407Z,50.849556
2022-08-07T07:08:00.368Z,50.849533
2022-08-07T07:08:25.704Z,50.849522
2022-08-07T07:09:20.869Z,50.849548
2022-08-07T07:10:21.271Z,50.849537
2022-08-07T07:12:08.781Z,50.849541
2022-08-07T07:12:30.732Z,50.849552
2022-08-07T07:13:56.672Z,50.849545
2022-08-07T07:14:22.060Z,50.849525
2022-08-07T07:15:23.796Z,50.849545
2022-08-07T07:16:20.956Z,50.849506
2022-08-07T07:17:20.810Z,50.849525
2022-08-07T07:18:46.838Z,50.849537
2022-08-07T07:19:55.653Z,50.849533
2022-08-07T07:20:21.780Z,50.849545
2022-08-07T07:21:20.775Z,50.849548
2022-08-07T07:22:36.835Z,50.849514
2022-08-07T07:24:10.936Z,50.849541
2022-08-07T07:24:22.008Z,50.849552
2022-08-07T07:26:32.288Z,50.849533
2022-08-07T07:26:34.758Z,50.849529
2022-08-07T07:27:21.888Z,50.849525
2022-08-07T07:28:42.484Z,50.849529
2022-08-07T07:29:39.318Z,50.849552
2022-08-07T07:30:26.524Z,50.849533
2022-08-07T07:31:21.829Z,50.849552
2022-08-07T07:32:20.683Z,50.849548
2022-08-07T07:33:20.676Z,50.849560
2022-08-07T07:34:20.685Z,50.849545
2022-08-07T07:35:20.656Z,50.849548
2022-08-07T07:36:20.650Z,50.849537
2022-08-07T07:37:44.469Z,50.849533
2022-08-07T07:38:21.634Z,50.849541
2022-08-07T07:39:20.661Z,50.849529
2022-08-07T07:40:20.613Z,50.849545
2022-08-07T07:41:21.615Z,50.849560
2022-08-07T07:42:25.743Z,50.849583
2022-08-07T07:43:27.538Z,50.849571
2022-08-07T07:44:26.068Z,50.849564
2022-08-07T07:45:24.557Z,50.849556
2022-08-07T07:46:37.146Z,50.849548
2022-08-07T07:47:23.881Z,50.849564
2022-08-07T07:48:35.286Z,50.849552
2022-08-07T07:50:34.012Z,50.849575
2022-08-07T07:50:34.693Z,50.849545
2022-08-07T07:51:21.547Z,50.849548
2022-08-07T07:52:20.514Z,50.849548
2022-08-07T07:53:25.664Z,50.849579
2022-08-07T07:54:21.727Z,50.849571
2022-08-07T07:55:20.488Z,50.849560
2022-08-07T07:56:30.116Z,50.849541
2022-08-07T07:57:21.485Z,50.849548
2022-08-07T07:58:21.534Z,50.849537
2022-08-07T07:59:27.178Z,50.849533
2022-08-07T08:00:29.583Z,50.849545
2022-08-07T08:02:01.849Z,50.849556
2022-08-07T08:02:34.314Z,50.849567
2022-08-07T08:04:09.411Z,50.849560
2022-08-07T08:04:25.691Z,50.849556
2022-08-07T08:05:20.412Z,50.849556
2022-08-07T08:06:20.399Z,50.849583
2022-08-07T08:07:20.417Z,50.849583
2022-08-07T08:08:34.815Z,50.849586
2022-08-07T08:09:22.783Z,50.849564
2022-08-07T08:10:37.992Z,50.849567
2022-08-07T08:11:59.850Z,50.849567
2022-08-07T08:12:43.171Z,50.849583
2022-08-07T08:13:21.351Z,50.849579
2022-08-07T08:14:24.563Z,50.849598
2022-08-07T08:15:23.301Z,50.849556
2022-08-07T08:16:20.353Z,50.849556
2022-08-07T08:17:57.501Z,50.849567
2022-08-07T08:18:21.361Z,50.849564
2022-08-07T08:20:15.917Z,50.849583
2022-08-07T08:20:23.894Z,50.849583
2022-08-07T08:21:22.020Z,50.849583
2022-08-07T08:22:21.284Z,50.849560
2022-08-07T08:23:21.445Z,50.849552
2022-08-07T08:24:36.467Z,50.849571
2022-08-07T08:25:41.745Z,50.849567
2022-08-07T08:26:21.344Z,50.849548
2022-08-07T08:27:20.522Z,50.849556
2022-08-07T08:28:23.882Z,50.849564
2022-08-07T08:29:21.225Z,50.849556
2022-08-07T08:30:20.990Z,50.849552
2022-08-07T08:31:22.740Z,50.849583
2022-08-07T08:32:25.470Z,50.849583
2022-08-07T08:33:21.976Z,50.849586
2022-08-07T08:34:27.320Z,50.849567
2022-08-07T08:35:21.190Z,50.849567
2022-08-07T08:36:25.640Z,50.849586
2022-08-07T08:37:59.888Z,50.849579
2022-08-07T08:38:29.270Z,50.849552
2022-08-07T08:39:21.187Z,50.849586
2022-08-07T08:40:28.311Z,50.849571
2022-08-07T08:41:21.161Z,50.849575
2022-08-07T08:42:20.594Z,50.849598
2022-08-07T08:43:21.100Z,50.849575
2022-08-07T08:44:29.466Z,50.849606
2022-08-07T08:45:21.082Z,50.849594
2022-08-07T08:46:21.986Z,50.849602
2022-08-07T08:47:20.182Z,50.849602
2022-08-07T08:48:20.053Z,50.849586
2022-08-07T08:49:32.887Z,50.849567
2022-08-07T08:50:35.233Z,50.849567
2022-08-07T08:51:49.418Z,50.849575
2022-08-07T08:52:21.052Z,50.849575
2022-08-07T08:53:20.023Z,50.849567
2022-08-07T08:54:20.026Z,50.849583
2022-08-07T08:55:20.747Z,50.849594
2022-08-07T08:56:24.402Z,50.849598
2022-08-07T08:57:20.078Z,50.849590
2022-08-07T08:58:20.420Z,50.849575
2022-08-07T08:59:21.071Z,50.849575
2022-08-07T09:00:19.969Z,50.849590
2022-08-07T09:01:20.115Z,50.849575
2022-08-07T09:02:34.604Z,50.849579
2022-08-07T09:03:20.964Z,50.849571
2022-08-07T09:04:25.716Z,50.849594
2022-08-07T09:05:26.382Z,50.849586
2022-08-07T09:06:21.675Z,50.849594
2022-08-07T09:07:24.367Z,50.849590
2022-08-07T09:08:24.285Z,50.849583
2022-08-07T09:09:30.302Z,50.849560
2022-08-07T09:10:21.593Z,50.849575
2022-08-07T09:11:24.338Z,50.849556
2022-08-07T09:12:31.804Z,50.849564
2022-08-07T09:13:20.890Z,50.849545
2022-08-07T09:14:20.913Z,50.849567
2022-08-07T09:16:22.086Z,50.849579
2022-08-07T09:16:29.814Z,50.849598
2022-08-07T09:17:20.975Z,50.849575
2022-08-07T09:18:22.830Z,50.849571
2022-08-07T09:19:44.873Z,50.849552
2022-08-07T09:20:34.833Z,50.849586
2022-08-07T09:21:34.108Z,50.849575
2022-08-07T09:24:28.837Z,50.849552
2022-08-07T09:24:30.925Z,50.849598
2022-08-07T09:24:33.845Z,50.849598
2022-08-07T09:25:20.764Z,50.849575
2022-08-07T09:26:20.804Z,50.849529
2022-08-07T09:27:19.758Z,50.849518
2022-08-07T09:30:01.765Z,50.849552
2022-08-07T09:30:04.469Z,50.849518
2022-08-07T09:30:25.487Z,50.849545
2022-08-07T09:31:20.764Z,50.849556
2022-08-07T09:32:20.965Z,50.849529
2022-08-07T09:33:40.944Z,50.849541
2022-08-07T09:34:20.844Z,50.849541
2022-08-07T09:36:04.082Z,50.849533
2022-08-07T09:36:20.699Z,50.849529
2022-08-07T09:37:19.681Z,50.849525
2022-08-07T09:38:19.655Z,50.849537
2022-08-07T09:39:52.555Z,50.849533
2022-08-07T09:40:20.738Z,50.849506
2022-08-07T09:41:19.650Z,50.849537
2022-08-07T09:42:24.977Z,50.849548
2022-08-07T09:43:20.611Z,50.849525
2022-08-07T09:44:32.938Z,50.849533
2022-08-07T09:47:25.996Z,50.849533
2022-08-07T09:47:49.519Z,50.849541
2022-08-07T09:47:51.998Z,50.849514
2022-08-07T09:48:20.907Z,50.849525
2022-08-07T09:50:02.105Z,50.849510
2022-08-07T09:50:20.546Z,50.849522
2022-08-07T09:52:10.806Z,50.849552
2022-08-07T09:52:33.868Z,50.849537
2022-08-07T09:53:20.543Z,50.849518
2022-08-07T09:54:19.518Z,50.849529
2022-08-07T09:55:29.804Z,50.849525
2022-08-07T09:56:33.797Z,50.849529
2022-08-07T09:57:20.482Z,50.849533
2022-08-07T09:58:19.481Z,50.849537
2022-08-07T09:59:21.950Z,50.849548
2022-08-07T10:00:19.486Z,50.849525
2022-08-07T10:01:50.601Z,50.849522
2022-08-07T10:02:20.461Z,50.849510
2022-08-07T10:04:05.331Z,50.849503
2022-08-07T10:04:28.184Z,50.849499
2022-08-07T10:05:21.292Z,50.849491
2022-08-07T10:06:24.483Z,50.849499
2022-08-07T10:07:26.228Z,50.849506
2022-08-07T10:08:20.387Z,50.849503
2022-08-07T10:09:34.426Z,50.849499
2022-08-07T10:10:21.292Z,50.849506
2022-08-07T10:12:01.554Z,50.849510
2022-08-07T10:12:21.529Z,50.849518
2022-08-07T10:13:54.878Z,50.849491
2022-08-07T10:14:23.014Z,50.849491
2022-08-07T10:15:20.364Z,50.849483
2022-08-07T10:16:19.323Z,50.849487
2022-08-07T10:17:19.327Z,50.849503
2022-08-07T10:18:19.781Z,50.849499
2022-08-07T10:19:19.345Z,50.849487
2022-08-07T10:20:22.082Z,50.849487
2022-08-07T10:22:14.198Z,50.849503
2022-08-07T10:22:24.911Z,50.849491
2022-08-07T10:24:06.045Z,50.849491
2022-08-07T10:24:21.369Z,50.849506
2022-08-07T10:25:22.547Z,50.849503
2022-08-07T10:26:24.727Z,50.849472
2022-08-07T10:27:20.256Z,50.849495
2022-08-07T10:28:19.231Z,50.849464
2022-08-07T10:29:19.198Z,50.849476
2022-08-07T10:30:19.195Z,50.849457
2022-08-07T10:31:19.210Z,50.849468
2022-08-07T10:32:51.510Z,50.849457
2022-08-07T10:33:20.204Z,50.849476
2022-08-07T10:34:27.308Z,50.849480
2022-08-07T10:35:20.349Z,50.849468
2022-08-07T10:36:19.149Z,50.849487
2022-08-07T10:37:22.294Z,50.849476
2022-08-07T10:38:36.198Z,50.849480
2022-08-07T10:39:20.210Z,50.849510
2022-08-07T10:40:20.966Z,50.849487
2022-08-07T10:41:46.473Z,50.849480
2022-08-07T10:42:21.196Z,50.849503
2022-08-07T10:43:29.871Z,50.849495
2022-08-07T10:44:28.385Z,50.849483
2022-08-07T10:45:57.328Z,50.849506
2022-08-07T10:46:20.061Z,50.849499
2022-08-07T10:47:19.083Z,50.849472
2022-08-07T10:48:20.053Z,50.849487
2022-08-07T10:49:24.450Z,50.849506
2022-08-07T10:50:20.052Z,50.849499
2022-08-07T10:51:57.628Z,50.849476
2022-08-07T10:52:20.020Z,50.849487
2022-08-07T10:53:21.200Z,50.849499
2022-08-07T10:54:26.535Z,50.849491
2022-08-07T10:55:26.825Z,50.849480
2022-08-07T10:56:20.682Z,50.849514
2022-08-07T10:57:33.938Z,50.849510
2022-08-07T10:58:31.972Z,50.849483
2022-08-07T10:59:21.760Z,50.849491
2022-08-07T11:00:39.547Z,50.849480
2022-08-07T11:01:22.348Z,50.849487
2022-08-07T11:02:32.818Z,50.849506
2022-08-07T11:03:19.938Z,50.849483
2022-08-07T11:04:31.827Z,50.849464
2022-08-07T11:05:19.910Z,50.849472
2022-08-07T11:06:18.903Z,50.849491
2022-08-07T11:07:56.551Z,50.849464
2022-08-07T11:08:19.909Z,50.849499
2022-08-07T11:10:09.746Z,50.849472
2022-08-07T11:10:19.918Z,50.849468
2022-08-07T11:11:20.847Z,50.849464
2022-08-07T11:12:31.472Z,50.849461
2022-08-07T11:14:42.273Z,50.849483
2022-08-07T11:14:46.136Z,50.849495
2022-08-07T11:15:19.818Z,50.849503
2022-08-07T11:16:19.813Z,50.849491
2022-08-07T11:17:42.624Z,50.849499
2022-08-07T11:18:19.899Z,50.849510
2022-08-07T11:19:21.408Z,50.849514
2022-08-07T11:20:19.139Z,50.849499
2022-08-07T11:21:18.761Z,50.849483
2022-08-07T11:22:32.456Z,50.849495
2022-08-07T11:23:26.153Z,50.849483
2022-08-07T11:24:19.763Z,50.849495
2022-08-07T11:25:19.825Z,50.849472
2022-08-07T11:26:18.720Z,50.849472
2022-08-07T11:27:20.693Z,50.849480